sensor_id;sensor_type;location;lat;lon;timestamp;P1;durP1;ratioP1;P2;durP2;ratioP2
13568;SDS011;6856;51.460;7.158;2024-01-06T00:01:02;8.00;;;6.53;;
13568;SDS011;6856;51.460;7.158;2024-01-06T00:03:36;6.60;;;5.60;;
13568;SDS011;6856;51.460;7.158;2024-01-06T00:06:11;7.80;;;7.03;;
13568;SDS011;6856;51.460;7.158;2024-01-06T00:08:46;7.10;;;6.40;;
13568;SDS011;6856;51.460;7.158;2024-01-06T00:11:27;6.87;;;6.17;;
13568;SDS011;6856;51.460;7.158;2024-01-06T00:14:00;7.20;;;6.50;;
13568;SDS011;6856;51.460;7.158;2024-01-06T00:16:34;7.83;;;6.53;;
13568;SDS011;6856;51.460;7.158;2024-01-06T00:19:08;6.70;;;6.00;;
13568;SDS011;6856;51.460;7.158;2024-01-06T00:21:42;7.33;;;6.63;;
13568;SDS011;6856;51.460;7.158;2024-01-06T00:24:16;6.90;;;6.20;;
13568;SDS011;6856;51.460;7.158;2024-01-06T00:26:51;8.47;;;6.97;;
13568;SDS011;6856;51.460;7.158;2024-01-06T00:29:25;8.13;;;6.67;;
13568;SDS011;6856;51.460;7.158;2024-01-06T00:31:59;8.73;;;7.13;;
13568;SDS011;6856;51.460;7.158;2024-01-06T00:34:32;8.70;;;7.80;;
13568;SDS011;6856;51.460;7.158;2024-01-06T00:37:06;8.63;;;7.57;;
13568;SDS011;6856;51.460;7.158;2024-01-06T00:39:40;7.40;;;6.70;;
13568;SDS011;6856;51.460;7.158;2024-01-06T00:42:15;7.37;;;6.67;;
13568;SDS011;6856;51.460;7.158;2024-01-06T00:44:48;7.20;;;6.50;;
13568;SDS011;6856;51.460;7.158;2024-01-06T00:47:22;8.33;;;6.93;;
13568;SDS011;6856;51.460;7.158;2024-01-06T00:49:56;7.87;;;6.77;;
13568;SDS011;6856;51.460;7.158;2024-01-06T00:52:30;6.73;;;6.03;;
13568;SDS011;6856;51.460;7.158;2024-01-06T00:55:04;7.23;;;6.00;;
13568;SDS011;6856;51.460;7.158;2024-01-06T00:57:40;7.17;;;6.27;;
13568;SDS011;6856;51.460;7.158;2024-01-06T01:00:16;6.27;;;5.63;;
13568;SDS011;6856;51.460;7.158;2024-01-06T01:02:50;6.73;;;5.90;;
13568;SDS011;6856;51.460;7.158;2024-01-06T01:05:24;7.13;;;6.13;;
13568;SDS011;6856;51.460;7.158;2024-01-06T01:07:57;7.17;;;6.47;;
13568;SDS011;6856;51.460;7.158;2024-01-06T01:10:31;8.07;;;6.27;;
13568;SDS011;6856;51.460;7.158;2024-01-06T01:13:06;6.67;;;5.97;;
13568;SDS011;6856;51.460;7.158;2024-01-06T01:15:43;6.37;;;5.77;;
13568;SDS011;6856;51.460;7.158;2024-01-06T01:18:17;6.20;;;5.60;;
13568;SDS011;6856;51.460;7.158;2024-01-06T01:20:51;6.90;;;6.10;;
13568;SDS011;6856;51.460;7.158;2024-01-06T01:23:24;7.50;;;6.70;;
13568;SDS011;6856;51.460;7.158;2024-01-06T01:26:00;7.40;;;5.93;;
13568;SDS011;6856;51.460;7.158;2024-01-06T01:28:36;6.50;;;5.83;;
13568;SDS011;6856;51.460;7.158;2024-01-06T01:31:09;7.47;;;6.30;;
13568;SDS011;6856;51.460;7.158;2024-01-06T01:33:44;7.07;;;6.37;;
13568;SDS011;6856;51.460;7.158;2024-01-06T01:36:18;7.57;;;6.57;;
13568;SDS011;6856;51.460;7.158;2024-01-06T01:38:52;7.00;;;6.30;;
13568;SDS011;6856;51.460;7.158;2024-01-06T01:41:26;7.43;;;6.63;;
13568;SDS011;6856;51.460;7.158;2024-01-06T01:44:02;8.23;;;6.50;;
13568;SDS011;6856;51.460;7.158;2024-01-06T01:46:36;7.33;;;6.50;;
13568;SDS011;6856;51.460;7.158;2024-01-06T01:49:11;7.17;;;6.47;;
13568;SDS011;6856;51.460;7.158;2024-01-06T01:51:45;7.00;;;6.13;;
13568;SDS011;6856;51.460;7.158;2024-01-06T01:54:19;7.97;;;6.87;;
13568;SDS011;6856;51.460;7.158;2024-01-06T01:56:53;7.60;;;6.57;;
13568;SDS011;6856;51.460;7.158;2024-01-06T01:59:29;7.57;;;6.60;;
13568;SDS011;6856;51.460;7.158;2024-01-06T02:02:03;7.20;;;6.50;;
13568;SDS011;6856;51.460;7.158;2024-01-06T02:04:40;8.17;;;6.57;;
13568;SDS011;6856;51.460;7.158;2024-01-06T02:07:15;7.33;;;6.53;;
13568;SDS011;6856;51.460;7.158;2024-01-06T02:09:49;8.53;;;7.00;;
13568;SDS011;6856;51.460;7.158;2024-01-06T02:12:23;7.67;;;6.87;;
13568;SDS011;6856;51.460;7.158;2024-01-06T02:14:59;8.70;;;7.70;;
13568;SDS011;6856;51.460;7.158;2024-01-06T02:17:34;8.37;;;7.10;;
13568;SDS011;6856;51.460;7.158;2024-01-06T02:20:08;7.90;;;7.10;;
13568;SDS011;6856;51.460;7.158;2024-01-06T02:22:47;8.33;;;7.23;;
13568;SDS011;6856;51.460;7.158;2024-01-06T02:25:21;8.67;;;7.47;;
13568;SDS011;6856;51.460;7.158;2024-01-06T02:27:55;7.80;;;7.00;;
13568;SDS011;6856;51.460;7.158;2024-01-06T02:30:29;9.93;;;8.50;;
13568;SDS011;6856;51.460;7.158;2024-01-06T02:33:02;8.37;;;7.03;;
13568;SDS011;6856;51.460;7.158;2024-01-06T02:35:36;9.23;;;7.63;;
13568;SDS011;6856;51.460;7.158;2024-01-06T02:38:12;8.10;;;7.03;;
13568;SDS011;6856;51.460;7.158;2024-01-06T02:40:46;9.47;;;8.20;;
13568;SDS011;6856;51.460;7.158;2024-01-06T02:43:20;9.20;;;7.67;;
13568;SDS011;6856;51.460;7.158;2024-01-06T02:45:54;8.93;;;7.90;;
13568;SDS011;6856;51.460;7.158;2024-01-06T02:48:28;9.63;;;7.70;;
13568;SDS011;6856;51.460;7.158;2024-01-06T02:51:07;8.40;;;7.50;;
13568;SDS011;6856;51.460;7.158;2024-01-06T02:53:45;9.50;;;8.50;;
13568;SDS011;6856;51.460;7.158;2024-01-06T02:56:18;10.07;;;8.47;;
13568;SDS011;6856;51.460;7.158;2024-01-06T02:58:52;10.10;;;8.03;;
13568;SDS011;6856;51.460;7.158;2024-01-06T03:01:26;9.43;;;8.33;;
13568;SDS011;6856;51.460;7.158;2024-01-06T03:04:00;9.53;;;8.40;;
13568;SDS011;6856;51.460;7.158;2024-01-06T03:06:34;9.57;;;8.20;;
13568;SDS011;6856;51.460;7.158;2024-01-06T03:09:09;9.80;;;8.23;;
13568;SDS011;6856;51.460;7.158;2024-01-06T03:11:43;8.80;;;7.90;;
13568;SDS011;6856;51.460;7.158;2024-01-06T03:14:17;8.57;;;7.67;;
13568;SDS011;6856;51.460;7.158;2024-01-06T03:16:51;10.33;;;8.40;;
13568;SDS011;6856;51.460;7.158;2024-01-06T03:19:25;9.87;;;8.87;;
13568;SDS011;6856;51.460;7.158;2024-01-06T03:21:59;10.33;;;9.13;;
13568;SDS011;6856;51.460;7.158;2024-01-06T03:24:34;10.67;;;9.37;;
13568;SDS011;6856;51.460;7.158;2024-01-06T03:27:08;11.30;;;10.03;;
13568;SDS011;6856;51.460;7.158;2024-01-06T03:29:42;11.37;;;9.80;;
13568;SDS011;6856;51.460;7.158;2024-01-06T03:32:16;11.00;;;9.07;;
13568;SDS011;6856;51.460;7.158;2024-01-06T03:34:50;11.10;;;9.90;;
13568;SDS011;6856;51.460;7.158;2024-01-06T03:37:24;10.70;;;9.00;;
13568;SDS011;6856;51.460;7.158;2024-01-06T03:39:59;11.13;;;9.93;;
13568;SDS011;6856;51.460;7.158;2024-01-06T03:42:33;10.80;;;9.50;;
13568;SDS011;6856;51.460;7.158;2024-01-06T03:45:08;11.60;;;9.80;;
13568;SDS011;6856;51.460;7.158;2024-01-06T03:47:42;11.43;;;9.17;;
13568;SDS011;6856;51.460;7.158;2024-01-06T03:50:16;11.87;;;9.67;;
13568;SDS011;6856;51.460;7.158;2024-01-06T03:52:49;10.60;;;8.97;;
13568;SDS011;6856;51.460;7.158;2024-01-06T03:55:26;11.10;;;9.53;;
13568;SDS011;6856;51.460;7.158;2024-01-06T03:58:01;10.80;;;9.07;;
13568;SDS011;6856;51.460;7.158;2024-01-06T04:00:35;10.80;;;9.10;;
13568;SDS011;6856;51.460;7.158;2024-01-06T04:03:08;9.63;;;7.97;;
13568;SDS011;6856;51.460;7.158;2024-01-06T04:05:42;10.73;;;8.13;;
13568;SDS011;6856;51.460;7.158;2024-01-06T04:08:16;10.30;;;8.27;;
13568;SDS011;6856;51.460;7.158;2024-01-06T04:10:52;8.83;;;7.43;;
13568;SDS011;6856;51.460;7.158;2024-01-06T04:13:26;9.87;;;7.80;;
13568;SDS011;6856;51.460;7.158;2024-01-06T04:15:59;8.83;;;6.87;;
13568;SDS011;6856;51.460;7.158;2024-01-06T04:18:34;9.03;;;7.43;;
13568;SDS011;6856;51.460;7.158;2024-01-06T04:21:08;9.23;;;7.10;;
13568;SDS011;6856;51.460;7.158;2024-01-06T04:23:42;9.53;;;7.43;;
13568;SDS011;6856;51.460;7.158;2024-01-06T04:26:17;9.03;;;6.93;;
13568;SDS011;6856;51.460;7.158;2024-01-06T04:28:51;8.07;;;6.33;;
13568;SDS011;6856;51.460;7.158;2024-01-06T04:31:25;8.00;;;6.70;;
13568;SDS011;6856;51.460;7.158;2024-01-06T04:33:59;9.03;;;7.30;;
13568;SDS011;6856;51.460;7.158;2024-01-06T04:36:35;9.90;;;7.83;;
13568;SDS011;6856;51.460;7.158;2024-01-06T04:39:09;9.90;;;7.93;;
13568;SDS011;6856;51.460;7.158;2024-01-06T04:41:46;8.87;;;7.67;;
13568;SDS011;6856;51.460;7.158;2024-01-06T04:44:21;10.17;;;7.33;;
13568;SDS011;6856;51.460;7.158;2024-01-06T04:46:55;9.50;;;7.77;;
13568;SDS011;6856;51.460;7.158;2024-01-06T04:49:29;9.00;;;6.80;;
13568;SDS011;6856;51.460;7.158;2024-01-06T04:52:03;9.60;;;7.20;;
13568;SDS011;6856;51.460;7.158;2024-01-06T04:54:37;7.57;;;6.23;;
13568;SDS011;6856;51.460;7.158;2024-01-06T04:57:13;8.67;;;6.70;;
13568;SDS011;6856;51.460;7.158;2024-01-06T04:59:47;9.30;;;7.00;;
13568;SDS011;6856;51.460;7.158;2024-01-06T05:02:21;8.07;;;6.23;;
13568;SDS011;6856;51.460;7.158;2024-01-06T05:04:55;8.40;;;6.87;;
13568;SDS011;6856;51.460;7.158;2024-01-06T05:07:28;8.53;;;6.77;;
13568;SDS011;6856;51.460;7.158;2024-01-06T05:10:02;8.10;;;6.30;;
13568;SDS011;6856;51.460;7.158;2024-01-06T05:12:39;8.73;;;6.80;;
13568;SDS011;6856;51.460;7.158;2024-01-06T05:15:12;8.93;;;6.80;;
13568;SDS011;6856;51.460;7.158;2024-01-06T05:17:46;8.13;;;6.57;;
13568;SDS011;6856;51.460;7.158;2024-01-06T05:20:20;10.37;;;7.67;;
13568;SDS011;6856;51.460;7.158;2024-01-06T05:22:54;8.53;;;6.80;;
13568;SDS011;6856;51.460;7.158;2024-01-06T05:25:28;9.27;;;6.47;;
13568;SDS011;6856;51.460;7.158;2024-01-06T05:28:03;8.73;;;6.93;;
13568;SDS011;6856;51.460;7.158;2024-01-06T05:30:37;8.97;;;6.63;;
13568;SDS011;6856;51.460;7.158;2024-01-06T05:33:11;8.27;;;6.23;;
13568;SDS011;6856;51.460;7.158;2024-01-06T05:35:47;8.10;;;6.37;;
13568;SDS011;6856;51.460;7.158;2024-01-06T05:38:20;7.33;;;5.33;;
13568;SDS011;6856;51.460;7.158;2024-01-06T05:40:55;8.60;;;6.43;;
13568;SDS011;6856;51.460;7.158;2024-01-06T05:43:30;8.23;;;6.53;;
13568;SDS011;6856;51.460;7.158;2024-01-06T05:46:04;7.83;;;6.50;;
13568;SDS011;6856;51.460;7.158;2024-01-06T05:48:38;7.73;;;6.13;;
13568;SDS011;6856;51.460;7.158;2024-01-06T05:51:13;7.40;;;5.93;;
13568;SDS011;6856;51.460;7.158;2024-01-06T05:53:46;7.87;;;6.67;;
13568;SDS011;6856;51.460;7.158;2024-01-06T05:56:23;7.73;;;6.27;;
13568;SDS011;6856;51.460;7.158;2024-01-06T05:59:00;9.37;;;6.87;;
13568;SDS011;6856;51.460;7.158;2024-01-06T06:01:34;8.53;;;6.63;;
13568;SDS011;6856;51.460;7.158;2024-01-06T06:04:08;9.43;;;6.80;;
13568;SDS011;6856;51.460;7.158;2024-01-06T06:06:43;8.97;;;6.63;;
13568;SDS011;6856;51.460;7.158;2024-01-06T06:09:17;8.20;;;6.73;;
13568;SDS011;6856;51.460;7.158;2024-01-06T06:11:52;8.17;;;6.40;;
13568;SDS011;6856;51.460;7.158;2024-01-06T06:14:28;9.17;;;7.07;;
13568;SDS011;6856;51.460;7.158;2024-01-06T06:17:02;8.23;;;6.57;;
13568;SDS011;6856;51.460;7.158;2024-01-06T06:19:36;7.10;;;5.87;;
13568;SDS011;6856;51.460;7.158;2024-01-06T06:22:10;7.23;;;5.33;;
13568;SDS011;6856;51.460;7.158;2024-01-06T06:24:45;8.43;;;6.83;;
13568;SDS011;6856;51.460;7.158;2024-01-06T06:27:19;7.93;;;6.03;;
13568;SDS011;6856;51.460;7.158;2024-01-06T06:29:54;8.57;;;6.07;;
13568;SDS011;6856;51.460;7.158;2024-01-06T06:32:28;7.33;;;5.53;;
13568;SDS011;6856;51.460;7.158;2024-01-06T06:35:02;7.20;;;5.43;;
13568;SDS011;6856;51.460;7.158;2024-01-06T06:37:38;6.47;;;5.00;;
13568;SDS011;6856;51.460;7.158;2024-01-06T06:40:11;6.90;;;5.20;;
13568;SDS011;6856;51.460;7.158;2024-01-06T06:42:45;6.93;;;5.50;;
13568;SDS011;6856;51.460;7.158;2024-01-06T06:45:21;6.67;;;5.33;;
13568;SDS011;6856;51.460;7.158;2024-01-06T06:47:55;7.30;;;5.90;;
13568;SDS011;6856;51.460;7.158;2024-01-06T06:50:29;7.27;;;6.10;;
13568;SDS011;6856;51.460;7.158;2024-01-06T06:53:02;8.03;;;6.37;;
13568;SDS011;6856;51.460;7.158;2024-01-06T06:55:37;7.70;;;6.27;;
13568;SDS011;6856;51.460;7.158;2024-01-06T06:58:13;7.43;;;5.70;;
13568;SDS011;6856;51.460;7.158;2024-01-06T07:00:49;8.80;;;6.57;;
13568;SDS011;6856;51.460;7.158;2024-01-06T07:03:23;8.60;;;6.63;;
13568;SDS011;6856;51.460;7.158;2024-01-06T07:05:58;8.43;;;6.83;;
13568;SDS011;6856;51.460;7.158;2024-01-06T07:08:32;9.10;;;7.00;;
13568;SDS011;6856;51.460;7.158;2024-01-06T07:11:05;9.13;;;7.30;;
13568;SDS011;6856;51.460;7.158;2024-01-06T07:13:39;7.83;;;6.63;;
13568;SDS011;6856;51.460;7.158;2024-01-06T07:16:14;8.53;;;6.97;;
13568;SDS011;6856;51.460;7.158;2024-01-06T07:18:50;8.33;;;6.70;;
13568;SDS011;6856;51.460;7.158;2024-01-06T07:21:24;8.20;;;6.67;;
13568;SDS011;6856;51.460;7.158;2024-01-06T07:23:58;7.40;;;6.50;;
13568;SDS011;6856;51.460;7.158;2024-01-06T07:26:32;8.17;;;6.10;;
13568;SDS011;6856;51.460;7.158;2024-01-06T07:29:06;6.70;;;5.20;;
13568;SDS011;6856;51.460;7.158;2024-01-06T07:31:41;8.03;;;6.20;;
13568;SDS011;6856;51.460;7.158;2024-01-06T07:34:15;7.30;;;5.70;;
13568;SDS011;6856;51.460;7.158;2024-01-06T07:36:49;7.50;;;6.17;;
13568;SDS011;6856;51.460;7.158;2024-01-06T07:39:23;7.07;;;5.73;;
13568;SDS011;6856;51.460;7.158;2024-01-06T07:41:58;7.70;;;6.27;;
13568;SDS011;6856;51.460;7.158;2024-01-06T07:44:32;8.17;;;6.73;;
13568;SDS011;6856;51.460;7.158;2024-01-06T07:47:08;8.40;;;6.97;;
13568;SDS011;6856;51.460;7.158;2024-01-06T07:49:41;8.63;;;7.03;;
13568;SDS011;6856;51.460;7.158;2024-01-06T07:52:16;9.57;;;7.67;;
13568;SDS011;6856;51.460;7.158;2024-01-06T07:54:49;9.63;;;7.33;;
13568;SDS011;6856;51.460;7.158;2024-01-06T07:57:23;10.07;;;8.07;;
13568;SDS011;6856;51.460;7.158;2024-01-06T07:59:57;8.90;;;7.77;;
13568;SDS011;6856;51.460;7.158;2024-01-06T08:02:37;9.87;;;8.03;;
13568;SDS011;6856;51.460;7.158;2024-01-06T08:05:11;9.40;;;7.67;;
13568;SDS011;6856;51.460;7.158;2024-01-06T08:07:47;9.43;;;7.63;;
13568;SDS011;6856;51.460;7.158;2024-01-06T08:10:21;10.67;;;8.37;;
13568;SDS011;6856;51.460;7.158;2024-01-06T08:12:55;9.63;;;8.47;;
13568;SDS011;6856;51.460;7.158;2024-01-06T08:15:29;11.63;;;9.23;;
13568;SDS011;6856;51.460;7.158;2024-01-06T08:18:06;11.33;;;9.27;;
13568;SDS011;6856;51.460;7.158;2024-01-06T08:20:40;10.97;;;8.53;;
13568;SDS011;6856;51.460;7.158;2024-01-06T08:23:15;10.90;;;8.87;;
13568;SDS011;6856;51.460;7.158;2024-01-06T08:25:51;10.47;;;8.67;;
13568;SDS011;6856;51.460;7.158;2024-01-06T08:28:25;11.20;;;9.47;;
13568;SDS011;6856;51.460;7.158;2024-01-06T08:30:59;10.23;;;8.37;;
13568;SDS011;6856;51.460;7.158;2024-01-06T08:33:34;11.80;;;8.93;;
13568;SDS011;6856;51.460;7.158;2024-01-06T08:36:08;10.33;;;9.00;;
13568;SDS011;6856;51.460;7.158;2024-01-06T08:38:43;12.50;;;9.70;;
13568;SDS011;6856;51.460;7.158;2024-01-06T08:41:16;11.60;;;9.30;;
13568;SDS011;6856;51.460;7.158;2024-01-06T08:43:50;12.57;;;9.70;;
13568;SDS011;6856;51.460;7.158;2024-01-06T08:46:24;12.90;;;10.27;;
13568;SDS011;6856;51.460;7.158;2024-01-06T08:48:59;12.20;;;9.53;;
13568;SDS011;6856;51.460;7.158;2024-01-06T08:51:33;11.80;;;9.70;;
13568;SDS011;6856;51.460;7.158;2024-01-06T08:54:07;11.70;;;9.53;;
13568;SDS011;6856;51.460;7.158;2024-01-06T08:56:41;11.73;;;9.50;;
13568;SDS011;6856;51.460;7.158;2024-01-06T08:59:15;11.73;;;10.07;;
13568;SDS011;6856;51.460;7.158;2024-01-06T09:01:51;10.97;;;9.07;;
13568;SDS011;6856;51.460;7.158;2024-01-06T09:04:27;11.37;;;8.17;;
13568;SDS011;6856;51.460;7.158;2024-01-06T09:07:03;9.27;;;7.63;;
13568;SDS011;6856;51.460;7.158;2024-01-06T09:09:37;9.33;;;7.27;;
13568;SDS011;6856;51.460;7.158;2024-01-06T09:12:11;9.53;;;7.10;;
13568;SDS011;6856;51.460;7.158;2024-01-06T09:14:45;10.23;;;8.47;;
13568;SDS011;6856;51.460;7.158;2024-01-06T09:17:19;10.50;;;8.27;;
13568;SDS011;6856;51.460;7.158;2024-01-06T09:19:57;10.83;;;7.77;;
13568;SDS011;6856;51.460;7.158;2024-01-06T09:22:30;7.37;;;6.13;;
13568;SDS011;6856;51.460;7.158;2024-01-06T09:25:05;9.60;;;7.93;;
13568;SDS011;6856;51.460;7.158;2024-01-06T09:27:39;9.73;;;8.17;;
13568;SDS011;6856;51.460;7.158;2024-01-06T09:30:13;9.70;;;8.07;;
13568;SDS011;6856;51.460;7.158;2024-01-06T09:32:48;7.80;;;6.63;;
13568;SDS011;6856;51.460;7.158;2024-01-06T09:35:23;8.23;;;7.40;;
13568;SDS011;6856;51.460;7.158;2024-01-06T09:37:57;9.40;;;7.80;;
13568;SDS011;6856;51.460;7.158;2024-01-06T09:40:31;8.53;;;6.97;;
13568;SDS011;6856;51.460;7.158;2024-01-06T09:43:08;8.30;;;7.20;;
13568;SDS011;6856;51.460;7.158;2024-01-06T09:45:42;8.67;;;7.43;;
13568;SDS011;6856;51.460;7.158;2024-01-06T09:48:19;9.87;;;7.97;;
13568;SDS011;6856;51.460;7.158;2024-01-06T09:51:03;7.63;;;6.63;;
13568;SDS011;6856;51.460;7.158;2024-01-06T09:53:42;8.63;;;6.60;;
13568;SDS011;6856;51.460;7.158;2024-01-06T09:56:22;7.03;;;6.03;;
13568;SDS011;6856;51.460;7.158;2024-01-06T09:59:00;7.20;;;5.87;;
13568;SDS011;6856;51.460;7.158;2024-01-06T10:01:34;7.33;;;5.87;;
13568;SDS011;6856;51.460;7.158;2024-01-06T10:04:09;8.70;;;6.47;;
13568;SDS011;6856;51.460;7.158;2024-01-06T10:06:47;8.30;;;6.30;;
13568;SDS011;6856;51.460;7.158;2024-01-06T10:09:25;7.77;;;6.47;;
13568;SDS011;6856;51.460;7.158;2024-01-06T10:12:00;7.93;;;6.20;;
13568;SDS011;6856;51.460;7.158;2024-01-06T10:14:34;8.13;;;6.70;;
13568;SDS011;6856;51.460;7.158;2024-01-06T10:17:09;7.57;;;6.50;;
13568;SDS011;6856;51.460;7.158;2024-01-06T10:19:44;7.20;;;5.77;;
13568;SDS011;6856;51.460;7.158;2024-01-06T10:22:21;8.07;;;6.07;;
13568;SDS011;6856;51.460;7.158;2024-01-06T10:24:55;7.20;;;5.90;;
13568;SDS011;6856;51.460;7.158;2024-01-06T10:27:30;7.33;;;6.20;;
13568;SDS011;6856;51.460;7.158;2024-01-06T10:30:04;7.10;;;5.93;;
13568;SDS011;6856;51.460;7.158;2024-01-06T10:32:40;7.67;;;6.53;;
13568;SDS011;6856;51.460;7.158;2024-01-06T10:35:15;7.80;;;6.30;;
13568;SDS011;6856;51.460;7.158;2024-01-06T10:37:52;7.80;;;6.93;;
13568;SDS011;6856;51.460;7.158;2024-01-06T10:40:26;7.00;;;6.30;;
13568;SDS011;6856;51.460;7.158;2024-01-06T10:43:00;7.83;;;6.70;;
13568;SDS011;6856;51.460;7.158;2024-01-06T10:45:36;7.83;;;6.67;;
13568;SDS011;6856;51.460;7.158;2024-01-06T10:48:10;9.70;;;7.33;;
13568;SDS011;6856;51.460;7.158;2024-01-06T10:50:45;8.50;;;7.47;;
13568;SDS011;6856;51.460;7.158;2024-01-06T10:53:22;8.40;;;7.10;;
13568;SDS011;6856;51.460;7.158;2024-01-06T10:56:00;7.70;;;6.80;;
13568;SDS011;6856;51.460;7.158;2024-01-06T10:58:34;9.17;;;7.37;;
13568;SDS011;6856;51.460;7.158;2024-01-06T11:01:14;10.00;;;7.17;;
13568;SDS011;6856;51.460;7.158;2024-01-06T11:04:00;9.23;;;7.57;;
13568;SDS011;6856;51.460;7.158;2024-01-06T11:06:39;10.20;;;8.73;;
13568;SDS011;6856;51.460;7.158;2024-01-06T11:09:24;8.67;;;7.07;;
13568;SDS011;6856;51.460;7.158;2024-01-06T11:12:05;9.17;;;8.20;;
13568;SDS011;6856;51.460;7.158;2024-01-06T11:14:40;9.50;;;8.47;;
13568;SDS011;6856;51.460;7.158;2024-01-06T11:20:28;9.77;;;8.00;;
13568;SDS011;6856;51.460;7.158;2024-01-06T11:23:18;9.17;;;7.57;;
13568;SDS011;6856;51.460;7.158;2024-01-06T11:25:54;11.17;;;8.50;;
13568;SDS011;6856;51.460;7.158;2024-01-06T11:28:28;10.10;;;8.90;;
13568;SDS011;6856;51.460;7.158;2024-01-06T11:31:07;10.27;;;9.13;;
13568;SDS011;6856;51.460;7.158;2024-01-06T11:33:42;10.80;;;9.47;;
13568;SDS011;6856;51.460;7.158;2024-01-06T11:36:16;13.60;;;10.83;;
13568;SDS011;6856;51.460;7.158;2024-01-06T11:38:55;11.00;;;9.50;;
13568;SDS011;6856;51.460;7.158;2024-01-06T11:41:47;8.80;;;7.90;;
13568;SDS011;6856;51.460;7.158;2024-01-06T11:44:22;9.03;;;7.90;;
13568;SDS011;6856;51.460;7.158;2024-01-06T11:46:56;8.97;;;6.97;;
13568;SDS011;6856;51.460;7.158;2024-01-06T11:49:32;9.53;;;7.13;;
13568;SDS011;6856;51.460;7.158;2024-01-06T11:52:06;10.10;;;7.20;;
13568;SDS011;6856;51.460;7.158;2024-01-06T11:54:41;8.00;;;6.50;;
13568;SDS011;6856;51.460;7.158;2024-01-06T11:57:17;8.37;;;6.90;;
13568;SDS011;6856;51.460;7.158;2024-01-06T11:59:52;6.50;;;5.80;;
13568;SDS011;6856;51.460;7.158;2024-01-06T12:02:26;7.43;;;6.47;;
13568;SDS011;6856;51.460;7.158;2024-01-06T12:05:00;8.00;;;6.43;;
13568;SDS011;6856;51.460;7.158;2024-01-06T12:07:35;7.87;;;6.93;;
13568;SDS011;6856;51.460;7.158;2024-01-06T12:10:09;8.40;;;7.37;;
13568;SDS011;6856;51.460;7.158;2024-01-06T12:12:55;8.17;;;7.27;;
13568;SDS011;6856;51.460;7.158;2024-01-06T12:15:32;8.67;;;7.73;;
13568;SDS011;6856;51.460;7.158;2024-01-06T12:18:06;8.93;;;8.03;;
13568;SDS011;6856;51.460;7.158;2024-01-06T12:20:40;10.43;;;7.67;;
13568;SDS011;6856;51.460;7.158;2024-01-06T12:23:23;8.97;;;8.07;;
13568;SDS011;6856;51.460;7.158;2024-01-06T12:26:00;8.77;;;7.40;;
13568;SDS011;6856;51.460;7.158;2024-01-06T12:28:36;8.97;;;7.67;;
13568;SDS011;6856;51.460;7.158;2024-01-06T12:31:12;8.00;;;7.20;;
13568;SDS011;6856;51.460;7.158;2024-01-06T12:33:47;9.63;;;7.70;;
13568;SDS011;6856;51.460;7.158;2024-01-06T12:36:21;9.90;;;8.03;;
13568;SDS011;6856;51.460;7.158;2024-01-06T12:38:58;9.30;;;8.00;;
13568;SDS011;6856;51.460;7.158;2024-01-06T12:41:33;10.93;;;8.87;;
13568;SDS011;6856;51.460;7.158;2024-01-06T12:44:11;10.83;;;8.63;;
13568;SDS011;6856;51.460;7.158;2024-01-06T12:46:45;10.37;;;9.03;;
13568;SDS011;6856;51.460;7.158;2024-01-06T12:49:19;9.47;;;7.90;;
13568;SDS011;6856;51.460;7.158;2024-01-06T12:51:53;11.00;;;8.87;;
13568;SDS011;6856;51.460;7.158;2024-01-06T12:54:27;10.60;;;9.43;;
13568;SDS011;6856;51.460;7.158;2024-01-06T12:57:01;11.47;;;10.03;;
13568;SDS011;6856;51.460;7.158;2024-01-06T12:59:37;10.20;;;8.50;;
13568;SDS011;6856;51.460;7.158;2024-01-06T13:02:12;10.00;;;8.47;;
13568;SDS011;6856;51.460;7.158;2024-01-06T13:04:47;10.37;;;8.50;;
13568;SDS011;6856;51.460;7.158;2024-01-06T13:07:20;9.70;;;7.80;;
13568;SDS011;6856;51.460;7.158;2024-01-06T13:09:55;10.57;;;8.00;;
13568;SDS011;6856;51.460;7.158;2024-01-06T13:12:31;10.27;;;9.00;;
13568;SDS011;6856;51.460;7.158;2024-01-06T13:15:08;9.77;;;8.77;;
13568;SDS011;6856;51.460;7.158;2024-01-06T13:17:43;9.93;;;8.27;;
13568;SDS011;6856;51.460;7.158;2024-01-06T13:20:17;9.90;;;8.53;;
13568;SDS011;6856;51.460;7.158;2024-01-06T13:22:51;10.17;;;9.00;;
13568;SDS011;6856;51.460;7.158;2024-01-06T13:25:26;10.17;;;8.20;;
13568;SDS011;6856;51.460;7.158;2024-01-06T13:28:00;9.17;;;7.97;;
13568;SDS011;6856;51.460;7.158;2024-01-06T13:30:36;9.23;;;7.73;;
13568;SDS011;6856;51.460;7.158;2024-01-06T13:33:11;8.50;;;7.37;;
13568;SDS011;6856;51.460;7.158;2024-01-06T13:35:45;7.40;;;6.60;;
13568;SDS011;6856;51.460;7.158;2024-01-06T13:38:19;7.73;;;6.60;;
13568;SDS011;6856;51.460;7.158;2024-01-06T13:40:54;8.27;;;7.07;;
13568;SDS011;6856;51.460;7.158;2024-01-06T13:43:28;9.53;;;8.13;;
13568;SDS011;6856;51.460;7.158;2024-01-06T13:46:05;11.60;;;9.40;;
13568;SDS011;6856;51.460;7.158;2024-01-06T13:48:39;9.93;;;8.07;;
13568;SDS011;6856;51.460;7.158;2024-01-06T13:51:13;10.50;;;8.13;;
13568;SDS011;6856;51.460;7.158;2024-01-06T13:53:47;12.40;;;8.60;;
13568;SDS011;6856;51.460;7.158;2024-01-06T13:56:22;7.70;;;6.53;;
13568;SDS011;6856;51.460;7.158;2024-01-06T13:58:56;7.63;;;6.80;;
13568;SDS011;6856;51.460;7.158;2024-01-06T14:01:32;7.27;;;6.53;;
13568;SDS011;6856;51.460;7.158;2024-01-06T14:04:06;8.00;;;7.20;;
13568;SDS011;6856;51.460;7.158;2024-01-06T14:06:40;8.13;;;6.80;;
13568;SDS011;6856;51.460;7.158;2024-01-06T14:09:15;6.90;;;6.00;;
13568;SDS011;6856;51.460;7.158;2024-01-06T14:11:52;6.80;;;5.93;;
13568;SDS011;6856;51.460;7.158;2024-01-06T14:14:26;7.70;;;6.43;;
13568;SDS011;6856;51.460;7.158;2024-01-06T14:17:02;7.93;;;7.07;;
13568;SDS011;6856;51.460;7.158;2024-01-06T14:19:36;8.20;;;7.13;;
13568;SDS011;6856;51.460;7.158;2024-01-06T14:22:10;8.73;;;7.60;;
13568;SDS011;6856;51.460;7.158;2024-01-06T14:24:45;9.23;;;7.60;;
13568;SDS011;6856;51.460;7.158;2024-01-06T14:27:20;9.00;;;7.77;;
13568;SDS011;6856;51.460;7.158;2024-01-06T14:29:55;9.17;;;8.23;;
13568;SDS011;6856;51.460;7.158;2024-01-06T14:32:30;9.70;;;8.07;;
13568;SDS011;6856;51.460;7.158;2024-01-06T14:35:07;9.63;;;8.50;;
13568;SDS011;6856;51.460;7.158;2024-01-06T14:37:43;11.93;;;10.00;;
13568;SDS011;6856;51.460;7.158;2024-01-06T14:40:19;11.57;;;10.37;;
13568;SDS011;6856;51.460;7.158;2024-01-06T14:42:54;12.60;;;10.17;;
13568;SDS011;6856;51.460;7.158;2024-01-06T14:45:29;11.97;;;9.97;;
13568;SDS011;6856;51.460;7.158;2024-01-06T14:48:08;9.20;;;8.27;;
13568;SDS011;6856;51.460;7.158;2024-01-06T14:50:42;11.57;;;8.90;;
13568;SDS011;6856;51.460;7.158;2024-01-06T14:53:17;11.13;;;9.17;;
13568;SDS011;6856;51.460;7.158;2024-01-06T14:55:50;11.43;;;9.13;;
13568;SDS011;6856;51.460;7.158;2024-01-06T14:58:28;9.57;;;8.00;;
13568;SDS011;6856;51.460;7.158;2024-01-06T15:01:04;9.10;;;7.97;;
13568;SDS011;6856;51.460;7.158;2024-01-06T15:03:41;11.07;;;8.73;;
13568;SDS011;6856;51.460;7.158;2024-01-06T15:06:15;9.23;;;8.07;;
13568;SDS011;6856;51.460;7.158;2024-01-06T15:08:49;8.77;;;7.83;;
13568;SDS011;6856;51.460;7.158;2024-01-06T15:11:23;9.13;;;8.13;;
13568;SDS011;6856;51.460;7.158;2024-01-06T15:13:57;9.97;;;8.87;;
13568;SDS011;6856;51.460;7.158;2024-01-06T15:16:34;11.63;;;9.33;;
13568;SDS011;6856;51.460;7.158;2024-01-06T15:19:11;11.00;;;8.83;;
13568;SDS011;6856;51.460;7.158;2024-01-06T15:21:45;11.20;;;9.40;;
13568;SDS011;6856;51.460;7.158;2024-01-06T15:24:21;10.93;;;8.90;;
13568;SDS011;6856;51.460;7.158;2024-01-06T15:26:55;10.87;;;9.03;;
13568;SDS011;6856;51.460;7.158;2024-01-06T15:29:28;9.93;;;8.70;;
13568;SDS011;6856;51.460;7.158;2024-01-06T15:32:04;11.30;;;9.00;;
13568;SDS011;6856;51.460;7.158;2024-01-06T15:34:41;10.07;;;9.03;;
13568;SDS011;6856;51.460;7.158;2024-01-06T15:37:15;9.77;;;8.60;;
13568;SDS011;6856;51.460;7.158;2024-01-06T15:39:50;10.43;;;8.67;;
13568;SDS011;6856;51.460;7.158;2024-01-06T15:42:24;11.00;;;8.97;;
13568;SDS011;6856;51.460;7.158;2024-01-06T15:44:59;10.40;;;9.33;;
13568;SDS011;6856;51.460;7.158;2024-01-06T15:47:33;11.43;;;10.20;;